createdAt,value
2023-05-19T00:03:41.283Z,101419.84
2023-05-19T00:08:44.188Z,101468.75
2023-05-19T00:13:50.371Z,101451.69
2023-05-19T00:18:54.488Z,101465.69
2023-05-19T00:23:57.669Z,101489.63
2023-05-19T00:29:00.657Z,101486.84
2023-05-19T00:34:03.903Z,101488.38
2023-05-19T00:39:06.306Z,101495.50
2023-05-19T00:44:08.761Z,101466.41
2023-05-19T00:49:11.961Z,101467.50
2023-05-19T00:54:16.483Z,101501.19
2023-05-19T00:59:18.889Z,101496.31
2023-05-19T01:04:22.088Z,101513.50
2023-05-19T01:09:24.730Z,101441.72
2023-05-19T01:14:28.854Z,101514.22
2023-05-19T01:20:04.847Z,101496.50
2023-05-19T01:25:44.980Z,101511.88
2023-05-19T01:30:56.626Z,101508.81
2023-05-19T01:35:59.840Z,101511.13
2023-05-19T01:41:04.249Z,101511.00
2023-05-19T01:46:07.635Z,101519.50
2023-05-19T01:51:10.711Z,101518.81
2023-05-19T01:56:22.186Z,101503.44
2023-05-19T02:01:40.871Z,101500.22
2023-05-19T02:07:03.944Z,101518.63
2023-05-19T02:12:28.794Z,101533.03
2023-05-19T02:17:33.608Z,101515.38
2023-05-19T02:22:37.489Z,101535.25
2023-05-19T02:27:40.194Z,101535.59
2023-05-19T02:32:42.958Z,101541.31
2023-05-19T02:37:45.475Z,101530.22
2023-05-19T02:42:48.363Z,101529.50
2023-05-19T02:47:50.903Z,101538.91
2023-05-19T02:52:54.751Z,101529.34
2023-05-19T02:57:57.752Z,101535.53
2023-05-19T03:03:03.030Z,101540.25
2023-05-19T03:08:07.056Z,101523.22
2023-05-19T03:13:09.983Z,101533.41
2023-05-19T03:18:14.052Z,101523.81
2023-05-19T03:23:17.147Z,101503.28
2023-05-19T03:28:20.323Z,101532.94
2023-05-19T03:33:24.697Z,101504.59
2023-05-19T03:38:27.795Z,101524.91
2023-05-19T03:43:33.433Z,101521.25
2023-05-19T03:48:40.155Z,101509.66
2023-05-19T03:54:06.324Z,101528.22
2023-05-19T03:59:10.734Z,101532.03
2023-05-19T04:04:13.741Z,101526.25
2023-05-19T04:09:16.764Z,101555.38
2023-05-19T04:14:20.456Z,101559.16
2023-05-19T04:19:23.261Z,101542.50
2023-05-19T04:24:26.912Z,101552.66
2023-05-19T04:29:30.190Z,101546.47
2023-05-19T04:34:34.036Z,101533.94
2023-05-19T04:39:46.129Z,101535.47
2023-05-19T04:44:51.972Z,101472.84
2023-05-19T04:49:56.518Z,101546.19
2023-05-19T04:54:59.842Z,101554.47
2023-05-19T05:00:10.561Z,101525.97
2023-05-19T05:05:22.455Z,101566.03
2023-05-19T05:10:26.270Z,101539.44
2023-05-19T05:15:30.130Z,101474.22
2023-05-19T05:26:55.724Z,101476.00
2023-05-19T05:31:59.161Z,101518.91
2023-05-19T05:37:02.060Z,101514.47
2023-05-19T05:42:06.538Z,101513.28
2023-05-19T05:47:09.446Z,101523.31
2023-05-19T05:52:13.053Z,101545.03
2023-05-19T05:57:21.048Z,101547.16
2023-05-19T06:02:28.973Z,101538.47
2023-05-19T06:07:33.832Z,101526.69
2023-05-19T06:12:41.738Z,101533.44
2023-05-19T06:17:46.177Z,101512.56
2023-05-19T06:22:50.028Z,101513.84
2023-05-19T06:27:55.213Z,101495.66
2023-05-19T06:32:59.623Z,101549.84
2023-05-19T06:38:03.761Z,101552.75
2023-05-19T06:43:14.524Z,101547.78
2023-05-19T06:48:34.372Z,101541.72
2023-05-19T06:53:39.546Z,101564.88
2023-05-19T06:58:45.265Z,101479.47
2023-05-19T07:03:49.432Z,101476.22
2023-05-19T07:08:52.288Z,101502.56
2023-05-19T07:13:56.411Z,101551.66
2023-05-19T07:19:06.465Z,101548.06
2023-05-19T07:24:12.639Z,101540.88
2023-05-19T07:29:15.335Z,101533.16
2023-05-19T07:34:18.472Z,101559.09
2023-05-19T07:39:28.129Z,101558.22
2023-05-19T07:44:31.658Z,101565.03
2023-05-19T07:49:34.663Z,101544.84
2023-05-19T07:54:37.672Z,101509.34
2023-05-19T07:59:40.378Z,101564.75
2023-05-19T08:04:43.451Z,101545.13
2023-05-19T08:09:46.438Z,101537.25
2023-05-19T08:14:50.241Z,101547.00
2023-05-19T08:19:53.945Z,101563.81
2023-05-19T08:24:57.806Z,101497.56
2023-05-19T08:30:00.270Z,101543.34
2023-05-19T08:35:03.724Z,101544.03
2023-05-19T08:40:09.431Z,101544.09
2023-05-19T08:45:12.246Z,101547.47
2023-05-19T08:50:32.450Z,101527.38
2023-05-19T08:55:50.470Z,101530.94
2023-05-19T09:00:53.912Z,101507.47
2023-05-19T09:05:58.116Z,101536.72
2023-05-19T09:11:01.358Z,101512.28
2023-05-19T09:16:04.948Z,101530.59
2023-05-19T09:21:11.376Z,101535.69
2023-05-19T09:26:15.694Z,101506.81
2023-05-19T09:31:23.100Z,101530.28
2023-05-19T09:36:25.966Z,101505.81
2023-05-19T09:41:30.920Z,101513.38
2023-05-19T09:46:36.445Z,101528.63
2023-05-19T09:51:46.537Z,101525.84
2023-05-19T09:57:00.127Z,101523.28
2023-05-19T10:02:04.223Z,101539.47
2023-05-19T10:07:11.820Z,101504.38
2023-05-19T10:12:15.455Z,101499.50
2023-05-19T10:17:19.539Z,101509.16
2023-05-19T10:22:22.466Z,101530.06
2023-05-19T10:27:28.849Z,101482.47
2023-05-19T10:32:34.349Z,101545.44
2023-05-19T10:44:00.637Z,101510.09
2023-05-19T10:49:03.561Z,101516.53
2023-05-19T10:54:14.434Z,101504.50
2023-05-19T10:59:33.258Z,101503.00
2023-05-19T11:04:51.891Z,101498.66
2023-05-19T11:09:54.845Z,101491.91
2023-05-19T11:15:00.191Z,101502.94
2023-05-19T11:20:05.176Z,101474.50
2023-05-19T11:25:11.535Z,101494.94
2023-05-19T11:30:20.335Z,101391.38
2023-05-19T11:35:23.608Z,101509.09
2023-05-19T11:40:28.696Z,101506.06
2023-05-19T11:45:33.523Z,101487.06
2023-05-19T11:50:38.654Z,101476.41
2023-05-19T11:55:48.549Z,101500.97
2023-05-19T12:00:52.822Z,101498.94
2023-05-19T12:05:57.713Z,101494.72
2023-05-19T12:11:01.552Z,101473.56
2023-05-19T12:16:04.840Z,101505.00
2023-05-19T12:21:08.022Z,101512.69
2023-05-19T12:26:11.689Z,101506.63
2023-05-19T12:31:14.970Z,101486.38
2023-05-19T12:36:18.380Z,101488.00
2023-05-19T12:41:21.550Z,101509.75
2023-05-19T12:46:26.702Z,101470.91
2023-05-19T12:51:29.711Z,101497.88
2023-05-19T12:56:33.590Z,101477.66
2023-05-19T13:01:36.802Z,101489.03
2023-05-19T13:06:39.963Z,101499.63
2023-05-19T13:11:44.414Z,101487.03
2023-05-19T13:16:48.757Z,101502.88
2023-05-19T13:21:53.666Z,101482.53
2023-05-19T13:26:59.584Z,101483.44
2023-05-19T13:32:03.550Z,101461.19
2023-05-19T13:37:10.198Z,101497.78
2023-05-19T13:42:18.482Z,101499.19
2023-05-19T13:47:21.704Z,101492.28
2023-05-19T13:52:25.325Z,101494.31
2023-05-19T13:57:29.622Z,101506.50
2023-05-19T14:02:32.587Z,101495.63
2023-05-19T14:07:36.852Z,101505.38
2023-05-19T14:12:55.016Z,101498.16
2023-05-19T14:18:07.380Z,101493.50
2023-05-19T14:23:11.376Z,101518.44
2023-05-19T14:28:14.118Z,101506.38
2023-05-19T14:33:18.453Z,101512.69
2023-05-19T14:38:21.213Z,101506.56
2023-05-19T14:43:25.280Z,101506.34
2023-05-19T14:48:28.444Z,101497.34
2023-05-19T14:53:31.663Z,101496.41
2023-05-19T14:58:34.230Z,101486.75
2023-05-19T15:03:38.467Z,101498.78
2023-05-19T15:08:42.970Z,101489.41
2023-05-19T15:13:45.650Z,101489.78
2023-05-19T15:18:49.509Z,101488.84
2023-05-19T15:23:53.721Z,101500.66
2023-05-19T15:28:57.397Z,101507.69
2023-05-19T15:34:01.297Z,101506.25
2023-05-19T15:39:05.433Z,101512.13
2023-05-19T15:44:08.737Z,101527.94
2023-05-19T15:49:12.633Z,101525.66
2023-05-19T15:54:15.770Z,101536.88
2023-05-19T15:59:19.823Z,101524.22
2023-05-19T16:04:22.955Z,101542.16
2023-05-19T16:09:26.005Z,101549.28
2023-05-19T16:14:32.907Z,101550.88
2023-05-19T16:19:36.538Z,101552.91
2023-05-19T16:24:39.662Z,101567.06
2023-05-19T16:29:42.370Z,101566.09
2023-05-19T16:34:44.998Z,101581.38
2023-05-19T16:39:51.942Z,101572.00
2023-05-19T16:44:54.965Z,101584.75
2023-05-19T16:49:57.662Z,101569.69
2023-05-19T16:55:02.032Z,101590.78
2023-05-19T17:00:08.181Z,101576.28
2023-05-19T17:05:10.931Z,101580.09
2023-05-19T17:10:15.262Z,101598.50
2023-05-19T17:15:18.231Z,101606.84
2023-05-19T17:20:22.165Z,101613.88
2023-05-19T17:25:26.688Z,101629.25
2023-05-19T17:30:30.396Z,101621.13
2023-05-19T17:35:35.302Z,101608.16
2023-05-19T17:40:42.069Z,101620.59
2023-05-19T17:45:45.352Z,101625.16
2023-05-19T17:50:48.630Z,101627.81
2023-05-19T17:55:57.318Z,101620.72
2023-05-19T18:01:00.590Z,101627.72
2023-05-19T18:06:03.723Z,101631.75
2023-05-19T18:11:07.352Z,101634.91
2023-05-19T18:16:11.003Z,101622.44
2023-05-19T18:21:18.039Z,101596.44
2023-05-19T18:26:21.823Z,101631.75
2023-05-19T18:31:26.707Z,101631.13
2023-05-19T18:36:33.490Z,101620.19
2023-05-19T18:41:40.094Z,101602.47
2023-05-19T18:46:43.212Z,101626.75
2023-05-19T18:51:49.063Z,101638.78
2023-05-19T18:56:52.806Z,101624.44
2023-05-19T19:01:56.516Z,101640.00
2023-05-19T19:07:00.727Z,101641.53
2023-05-19T19:12:04.883Z,101656.81
2023-05-19T19:17:08.297Z,101660.75
2023-05-19T19:22:16.830Z,101656.69
2023-05-19T19:27:21.277Z,101669.47
2023-05-19T19:32:24.190Z,101673.47
2023-05-19T19:37:28.516Z,101674.63
2023-05-19T19:42:33.400Z,101678.13
2023-05-19T19:47:37.260Z,101689.06
2023-05-19T19:52:40.508Z,101677.28
2023-05-19T19:57:45.260Z,101676.22
2023-05-19T20:03:03.717Z,101695.38
2023-05-19T20:08:09.188Z,101705.81
2023-05-19T20:13:12.251Z,101716.00
2023-05-19T20:18:15.223Z,101711.34
2023-05-19T20:23:18.542Z,101705.16
2023-05-19T20:28:24.215Z,101705.34
2023-05-19T20:33:27.633Z,101718.28
2023-05-19T20:38:31.955Z,101714.22
2023-05-19T20:43:34.928Z,101705.75
2023-05-19T20:48:38.229Z,101708.25
2023-05-19T20:53:41.492Z,101729.56
2023-05-19T20:58:44.135Z,101732.34
2023-05-19T21:03:46.739Z,101722.13
2023-05-19T21:08:49.769Z,101712.53
2023-05-19T21:13:52.843Z,101721.81
2023-05-19T21:18:55.899Z,101718.59
2023-05-19T21:23:58.902Z,101731.31
2023-05-19T21:29:02.520Z,101725.25
2023-05-19T21:34:07.353Z,101731.88
2023-05-19T21:39:09.943Z,101724.81
2023-05-19T21:44:12.892Z,101692.94
2023-05-19T21:49:15.612Z,101728.66
2023-05-19T21:54:19.249Z,101723.91
2023-05-19T21:59:23.479Z,101728.78
2023-05-19T22:04:27.301Z,101720.56
2023-05-19T22:09:30.374Z,101739.78
2023-05-19T22:14:33.175Z,101743.97
2023-05-19T22:19:35.611Z,101738.25
2023-05-19T22:24:38.660Z,101734.44
2023-05-19T22:29:41.633Z,101732.16
2023-05-19T22:34:45.045Z,101740.09
2023-05-19T22:39:47.886Z,101751.75
2023-05-19T22:44:50.457Z,101749.75
2023-05-19T22:49:54.179Z,101751.03
2023-05-19T22:54:57.343Z,101757.34
2023-05-19T23:00:00.232Z,101740.31
2023-05-19T23:05:04.035Z,101746.28
2023-05-19T23:10:07.763Z,101746.56
2023-05-19T23:15:11.525Z,101746.00
2023-05-19T23:20:14.207Z,101723.75
2023-05-19T23:25:17.244Z,101729.00
2023-05-19T23:30:19.746Z,101736.44
2023-05-19T23:35:23.311Z,101748.41
2023-05-19T23:40:27.127Z,101718.94
2023-05-19T23:45:30.590Z,101723.47
2023-05-19T23:50:32.911Z,101729.53
2023-05-19T23:55:35.908Z,101736.97
